createdAt,value
2018-05-04T00:01:52.505Z,50.88
2018-05-04T00:04:20.002Z,51.10
2018-05-04T00:06:47.477Z,51.10
2018-05-04T00:09:15.040Z,51.41
2018-05-04T00:11:42.591Z,51.64
2018-05-04T00:14:10.032Z,51.54
2018-05-04T00:16:37.483Z,51.70
2018-05-04T00:19:04.959Z,51.73
2018-05-04T00:21:32.415Z,51.83
2018-05-04T00:23:59.873Z,51.85
2018-05-04T00:26:27.347Z,52.13
2018-05-04T00:28:54.798Z,52.25
2018-05-04T00:31:22.284Z,52.34
2018-05-04T00:33:49.753Z,52.67
2018-05-04T00:36:17.246Z,52.64
2018-05-04T00:38:44.741Z,52.76
2018-05-04T00:41:12.250Z,52.93
2018-05-04T00:43:39.721Z,53.08
2018-05-04T00:46:07.203Z,53.08
2018-05-04T00:48:34.654Z,53.28
2018-05-04T00:51:02.099Z,53.35
2018-05-04T00:53:29.550Z,53.31
2018-05-04T00:55:57.008Z,53.48
2018-05-04T00:58:24.582Z,53.67
2018-05-04T01:00:52.058Z,53.86
2018-05-04T01:03:19.506Z,53.91
2018-05-04T01:05:47.090Z,53.99
2018-05-04T01:08:14.621Z,54.33
2018-05-04T01:10:42.065Z,54.52
2018-05-04T01:13:09.506Z,54.68
2018-05-04T01:15:37.105Z,54.72
2018-05-04T01:18:04.641Z,54.76
2018-05-04T01:23:06.004Z,55.02
2018-05-04T01:25:33.491Z,55.15
2018-05-04T01:28:01.078Z,55.31
2018-05-04T01:30:28.581Z,55.35
2018-05-04T01:32:56.031Z,55.45
2018-05-04T01:35:23.507Z,55.55
2018-05-04T01:37:51.005Z,55.54
2018-05-04T01:40:18.462Z,55.72
2018-05-04T01:42:45.905Z,55.78
2018-05-04T01:45:13.456Z,55.93
2018-05-04T01:47:40.932Z,56.08
2018-05-04T01:50:08.444Z,56.37
2018-05-04T01:52:36.008Z,56.48
2018-05-04T01:55:03.486Z,56.55
2018-05-04T01:57:30.943Z,56.73
2018-05-04T01:59:58.468Z,56.85
2018-05-04T02:02:25.951Z,57.03
2018-05-04T02:04:53.435Z,57.23
2018-05-04T02:07:20.955Z,57.37
2018-05-04T02:09:48.436Z,57.57
2018-05-04T02:12:15.977Z,57.63
2018-05-04T02:14:43.451Z,57.77
2018-05-04T02:17:11.018Z,57.87
2018-05-04T02:19:38.468Z,57.85
2018-05-04T02:22:06.055Z,58.12
2018-05-04T02:24:33.535Z,58.33
2018-05-04T02:27:01.017Z,58.56
2018-05-04T02:29:28.545Z,58.49
2018-05-04T02:31:55.995Z,58.54
2018-05-04T02:34:23.496Z,58.49
2018-05-04T02:36:50.960Z,58.63
2018-05-04T02:39:18.423Z,58.77
2018-05-04T02:41:45.997Z,58.91
2018-05-04T02:44:13.523Z,59.09
2018-05-04T02:46:40.987Z,59.19
2018-05-04T02:49:08.537Z,59.26
2018-05-04T02:51:36.009Z,59.45
2018-05-04T02:54:03.561Z,59.43
2018-05-04T02:56:31.117Z,59.43
2018-05-04T02:58:58.633Z,59.81
2018-05-04T03:01:26.164Z,59.80
2018-05-04T03:03:53.649Z,59.83
2018-05-04T03:06:21.142Z,59.91
2018-05-04T03:08:48.620Z,60.21
2018-05-04T03:11:16.110Z,60.73
2018-05-04T03:13:43.656Z,60.20
2018-05-04T03:16:11.177Z,60.25
2018-05-04T03:18:38.654Z,60.29
2018-05-04T03:21:06.127Z,60.45
2018-05-04T03:23:33.677Z,60.64
2018-05-04T03:26:01.128Z,60.71
2018-05-04T03:28:28.607Z,60.65
2018-05-04T03:30:56.060Z,60.65
2018-05-04T03:33:23.528Z,61.18
2018-05-04T03:35:51.000Z,61.29
2018-05-04T03:38:18.481Z,61.27
2018-05-04T03:40:46.801Z,61.39
2018-05-04T03:43:14.338Z,61.04
2018-05-04T03:45:41.883Z,60.91
2018-05-04T03:48:09.363Z,61.47
2018-05-04T03:50:36.857Z,60.81
2018-05-04T03:53:04.397Z,60.88
2018-05-04T03:55:31.883Z,60.98
2018-05-04T03:58:11.299Z,60.96
2018-05-04T04:00:50.520Z,60.79
2018-05-04T04:03:29.799Z,60.78
2018-05-04T04:05:57.256Z,60.81
2018-05-04T04:08:24.728Z,61.15
2018-05-04T04:10:52.213Z,60.59
2018-05-04T04:13:19.665Z,60.36
2018-05-04T04:15:47.108Z,60.05
2018-05-04T04:18:14.580Z,59.45
2018-05-04T04:20:42.060Z,59.15
2018-05-04T04:23:09.564Z,58.99
2018-05-04T04:25:37.071Z,58.51
2018-05-04T04:28:04.532Z,58.48
2018-05-04T04:30:31.988Z,57.61
2018-05-04T04:32:59.480Z,56.88
2018-05-04T04:35:26.966Z,57.04
2018-05-04T04:37:54.505Z,56.88
2018-05-04T04:40:21.973Z,56.25
2018-05-04T04:42:49.466Z,54.50
2018-05-04T04:45:16.955Z,52.06
2018-05-04T04:47:44.432Z,47.95
2018-05-04T04:50:11.899Z,46.18
2018-05-04T04:52:39.376Z,45.49
2018-05-04T04:55:06.849Z,44.44
2018-05-04T04:57:34.447Z,46.94
2018-05-04T05:00:01.925Z,49.93
2018-05-04T05:02:29.404Z,52.06
2018-05-04T05:04:56.923Z,53.93
2018-05-04T05:07:24.383Z,54.62
2018-05-04T05:09:51.868Z,54.39
2018-05-04T05:12:19.395Z,54.46
2018-05-04T05:14:46.895Z,55.32
2018-05-04T05:17:14.341Z,55.71
2018-05-04T05:19:41.853Z,55.90
2018-05-04T05:22:09.352Z,56.28
2018-05-04T05:24:36.839Z,56.51
2018-05-04T05:27:04.325Z,56.04
2018-05-04T05:29:31.804Z,56.34
2018-05-04T05:31:59.276Z,56.13
2018-05-04T05:34:26.801Z,55.98
2018-05-04T05:36:54.271Z,55.55
2018-05-04T05:39:21.721Z,56.02
2018-05-04T05:41:49.238Z,55.71
2018-05-04T05:44:16.844Z,55.60
2018-05-04T05:46:44.402Z,55.42
2018-05-04T05:49:11.887Z,54.80
2018-05-04T05:51:39.332Z,54.43
2018-05-04T05:54:06.883Z,54.21
2018-05-04T05:56:34.366Z,53.87
2018-05-04T05:59:01.863Z,54.29
2018-05-04T06:01:29.507Z,54.29
2018-05-04T06:03:56.983Z,54.61
2018-05-04T06:06:24.448Z,54.76
2018-05-04T06:08:52.018Z,54.69
2018-05-04T06:11:19.527Z,54.29
2018-05-04T06:13:46.994Z,53.78
2018-05-04T06:16:14.490Z,53.76
2018-05-04T06:18:41.958Z,53.54
2018-05-04T06:21:09.465Z,53.52
2018-05-04T06:23:37.046Z,52.77
2018-05-04T06:26:04.540Z,52.24
2018-05-04T06:28:32.301Z,52.34
2018-05-04T06:30:59.821Z,51.80
2018-05-04T06:33:27.277Z,51.53
2018-05-04T06:35:54.821Z,51.47
2018-05-04T06:38:22.335Z,51.09
2018-05-04T06:40:49.802Z,51.08
2018-05-04T06:43:17.349Z,50.31
2018-05-04T06:45:44.898Z,48.98
2018-05-04T06:48:12.417Z,49.64
2018-05-04T06:50:39.932Z,49.24
2018-05-04T06:53:07.395Z,48.83
2018-05-04T06:55:34.847Z,47.14
2018-05-04T06:58:02.316Z,47.21
2018-05-04T07:00:29.792Z,47.14
2018-05-04T07:02:57.268Z,47.62
2018-05-04T07:05:24.736Z,48.08
2018-05-04T07:07:52.275Z,46.84
2018-05-04T07:10:19.811Z,46.31
2018-05-04T07:12:47.290Z,46.96
2018-05-04T07:15:14.797Z,44.96
2018-05-04T07:17:42.280Z,43.78
2018-05-04T07:20:09.765Z,44.15
2018-05-04T07:22:37.231Z,43.60
2018-05-04T07:25:04.722Z,43.77
2018-05-04T07:27:32.283Z,44.18
2018-05-04T07:29:59.748Z,43.49
2018-05-04T07:32:27.308Z,42.90
2018-05-04T07:34:54.812Z,43.01
2018-05-04T07:37:22.306Z,42.07
2018-05-04T07:39:49.797Z,42.15
2018-05-04T07:42:17.322Z,42.60
2018-05-04T07:44:44.825Z,42.50
2018-05-04T07:47:12.300Z,41.81
2018-05-04T07:49:39.781Z,39.29
2018-05-04T07:52:07.240Z,39.95
2018-05-04T07:54:34.683Z,38.13
2018-05-04T07:57:02.201Z,37.89
2018-05-04T07:59:29.661Z,38.70
2018-05-04T08:01:57.118Z,40.48
2018-05-04T08:04:24.641Z,39.57
2018-05-04T08:06:52.130Z,40.76
2018-05-04T08:09:19.649Z,41.92
2018-05-04T08:11:47.103Z,41.36
2018-05-04T08:14:14.556Z,40.40
2018-05-04T08:16:42.057Z,39.18
2018-05-04T08:19:09.607Z,38.52
2018-05-04T08:21:37.060Z,39.45
2018-05-04T08:24:04.602Z,40.04
2018-05-04T08:26:32.092Z,39.88
2018-05-04T08:28:59.545Z,38.48
2018-05-04T08:31:27.037Z,37.74
2018-05-04T08:33:54.515Z,37.52
2018-05-04T08:36:22.093Z,37.50
2018-05-04T08:38:49.614Z,35.62
2018-05-04T08:41:17.062Z,35.45
2018-05-04T08:43:44.604Z,35.87
2018-05-04T08:46:12.067Z,35.85
2018-05-04T08:48:39.556Z,36.30
2018-05-04T08:51:07.240Z,36.30
2018-05-04T08:53:34.704Z,36.95
2018-05-04T08:56:02.191Z,35.55
2018-05-04T08:58:29.703Z,33.48
2018-05-04T09:00:57.153Z,34.49
2018-05-04T09:03:24.632Z,34.70
2018-05-04T09:05:52.163Z,35.38
2018-05-04T09:08:19.638Z,36.01
2018-05-04T09:10:47.123Z,35.94
2018-05-04T09:13:14.601Z,34.46
2018-05-04T09:15:42.103Z,34.62
2018-05-04T09:18:09.600Z,35.05
2018-05-04T09:20:37.060Z,35.26
2018-05-04T09:23:04.565Z,33.95
2018-05-04T09:25:32.019Z,33.16
2018-05-04T09:27:59.528Z,32.81
2018-05-04T09:30:26.985Z,32.11
2018-05-04T09:32:54.489Z,32.36
2018-05-04T09:35:21.980Z,32.53
2018-05-04T09:37:49.459Z,32.65
2018-05-04T09:40:16.937Z,32.99
2018-05-04T09:42:44.576Z,33.34
2018-05-04T09:45:12.068Z,33.24
2018-05-04T09:47:39.551Z,32.47
2018-05-04T09:50:06.995Z,30.64
2018-05-04T09:52:34.504Z,31.45
2018-05-04T09:55:02.064Z,32.61
2018-05-04T09:57:29.598Z,32.34
2018-05-04T09:59:57.167Z,31.10
2018-05-04T10:02:25.215Z,30.79
2018-05-04T10:04:52.739Z,31.67
2018-05-04T10:07:20.357Z,30.09
2018-05-04T10:09:47.837Z,30.34
2018-05-04T10:12:15.286Z,29.83
2018-05-04T10:14:42.829Z,29.18
2018-05-04T10:17:10.280Z,27.59
2018-05-04T10:19:37.765Z,28.74
2018-05-04T10:22:05.273Z,29.24
2018-05-04T10:24:32.796Z,28.98
2018-05-04T10:27:00.261Z,29.01
2018-05-04T10:29:27.761Z,28.85
2018-05-04T10:31:55.231Z,27.05
2018-05-04T10:34:22.723Z,27.88
2018-05-04T10:36:50.203Z,27.74
2018-05-04T10:39:17.684Z,28.47
2018-05-04T10:41:45.165Z,29.24
2018-05-04T10:44:12.689Z,29.70
2018-05-04T10:46:40.180Z,29.91
2018-05-04T10:49:07.670Z,29.70
2018-05-04T10:51:35.148Z,29.47
2018-05-04T10:54:02.679Z,29.46
2018-05-04T10:56:31.179Z,29.90
2018-05-04T10:58:58.685Z,29.50
2018-05-04T11:01:26.200Z,29.63
2018-05-04T11:03:53.694Z,29.60
2018-05-04T11:06:21.156Z,29.84
2018-05-04T11:08:48.721Z,29.76
2018-05-04T11:11:16.257Z,30.84
2018-05-04T11:13:43.632Z,30.73
2018-05-04T11:16:11.106Z,29.74
2018-05-04T11:18:38.569Z,29.84
2018-05-04T11:21:06.114Z,29.92
2018-05-04T11:23:33.641Z,29.71
2018-05-04T11:26:01.147Z,29.89
2018-05-04T11:28:28.598Z,29.69
2018-05-04T11:30:56.182Z,30.25
2018-05-04T11:33:23.697Z,30.20
2018-05-04T11:35:51.236Z,30.47
2018-05-04T11:38:18.711Z,30.45
2018-05-04T11:40:46.190Z,30.17
2018-05-04T11:43:13.648Z,29.83
2018-05-04T11:45:41.128Z,30.12
2018-05-04T11:48:08.670Z,30.46
2018-05-04T11:50:36.127Z,30.69
2018-05-04T11:53:03.728Z,29.77
2018-05-04T11:55:31.280Z,30.26
2018-05-04T11:57:58.857Z,30.26
2018-05-04T12:00:26.361Z,29.42
2018-05-04T12:02:53.841Z,29.49
2018-05-04T12:05:21.303Z,28.98
2018-05-04T12:07:48.838Z,29.67
2018-05-04T12:10:16.389Z,29.35
2018-05-04T12:12:43.901Z,29.26
2018-05-04T12:15:11.394Z,29.53
2018-05-04T12:17:38.949Z,29.12
2018-05-04T12:20:06.442Z,29.62
2018-05-04T12:22:33.912Z,29.01
2018-05-04T12:25:01.395Z,29.33
2018-05-04T12:27:28.848Z,28.89
2018-05-04T12:29:56.315Z,29.04
2018-05-04T12:32:23.801Z,28.78
2018-05-04T12:34:51.291Z,28.42
2018-05-04T12:37:18.778Z,27.76
2018-05-04T12:39:46.287Z,28.09
2018-05-04T12:42:13.794Z,28.18
2018-05-04T12:44:41.299Z,28.31
2018-05-04T12:47:08.787Z,28.36
2018-05-04T12:49:36.398Z,27.66
2018-05-04T12:52:03.876Z,28.15
2018-05-04T12:54:31.318Z,27.66
2018-05-04T12:56:58.804Z,27.90
2018-05-04T12:59:26.355Z,27.91
2018-05-04T13:01:53.834Z,27.67
2018-05-04T13:04:21.447Z,28.32
2018-05-04T13:06:49.005Z,27.97
2018-05-04T13:09:16.500Z,28.17
2018-05-04T13:11:44.035Z,27.32
2018-05-04T13:14:11.574Z,27.90
2018-05-04T13:16:39.144Z,27.35
2018-05-04T13:19:06.599Z,27.19
2018-05-04T13:21:34.168Z,27.58
2018-05-04T13:24:01.677Z,28.11
2018-05-04T13:26:29.144Z,27.49
2018-05-04T13:28:56.975Z,28.06
2018-05-04T13:31:24.503Z,27.62
2018-05-04T13:33:51.984Z,27.86
2018-05-04T13:36:19.735Z,27.64
2018-05-04T13:38:47.283Z,27.76
2018-05-04T13:41:14.801Z,27.10
2018-05-04T13:43:42.286Z,27.77
2018-05-04T13:46:09.732Z,27.26
2018-05-04T13:48:37.549Z,27.46
2018-05-04T13:51:05.178Z,27.95
2018-05-04T13:53:32.627Z,27.05
2018-05-04T13:56:00.072Z,27.26
2018-05-04T13:58:27.548Z,27.44
2018-05-04T14:00:55.020Z,27.38
2018-05-04T14:03:22.504Z,27.15
2018-05-04T14:05:50.013Z,27.06
2018-05-04T14:08:17.463Z,27.33
2018-05-04T14:10:44.941Z,26.50
2018-05-04T14:13:12.468Z,26.66
2018-05-04T14:15:39.958Z,26.26
2018-05-04T14:18:07.441Z,25.82
2018-05-04T14:20:34.919Z,25.79
2018-05-04T14:23:02.403Z,26.22
2018-05-04T14:25:29.901Z,25.92
2018-05-04T14:27:57.417Z,25.91
2018-05-04T14:30:24.925Z,25.89
2018-05-04T14:32:52.408Z,26.10
2018-05-04T14:35:19.914Z,25.89
2018-05-04T14:37:47.401Z,25.92
2018-05-04T14:40:14.861Z,26.71
2018-05-04T14:42:42.404Z,26.44
2018-05-04T14:45:09.800Z,26.33
2018-05-04T14:47:37.295Z,26.72
2018-05-04T14:50:04.837Z,26.90
2018-05-04T14:52:32.343Z,26.66
2018-05-04T14:54:59.838Z,26.80
2018-05-04T14:57:27.347Z,26.93
2018-05-04T14:59:54.842Z,27.09
2018-05-04T15:02:22.303Z,27.61
2018-05-04T15:04:49.884Z,27.89
2018-05-04T15:07:17.361Z,27.48
2018-05-04T15:09:44.833Z,27.99
2018-05-04T15:12:12.296Z,27.18
2018-05-04T15:14:39.824Z,25.45
2018-05-04T15:17:07.273Z,24.32
2018-05-04T15:19:34.721Z,23.78
2018-05-04T15:22:02.252Z,22.60
2018-05-04T15:24:29.754Z,21.32
2018-05-04T15:26:57.357Z,21.17
2018-05-04T15:29:24.919Z,20.65
2018-05-04T15:31:52.383Z,20.49
2018-05-04T15:34:19.864Z,20.26
2018-05-04T15:36:47.358Z,20.28
2018-05-04T15:39:14.858Z,21.09
2018-05-04T15:41:42.373Z,21.42
2018-05-04T15:44:09.863Z,21.81
2018-05-04T15:46:37.349Z,21.58
2018-05-04T15:49:10.511Z,20.28
2018-05-04T15:51:43.669Z,20.31
2018-05-04T15:54:11.193Z,19.99
2018-05-04T15:56:38.692Z,20.14
2018-05-04T15:59:06.148Z,20.24
2018-05-04T16:01:33.637Z,21.48
2018-05-04T16:04:01.113Z,22.20
2018-05-04T16:06:28.575Z,21.73
2018-05-04T16:08:56.055Z,23.05
2018-05-04T16:11:23.580Z,23.66
2018-05-04T16:13:51.107Z,24.04
2018-05-04T16:16:18.658Z,23.81
2018-05-04T16:18:46.249Z,24.47
2018-05-04T16:21:13.708Z,25.38
2018-05-04T16:23:41.190Z,27.28
2018-05-04T16:26:08.798Z,28.50
2018-05-04T16:28:36.384Z,29.46
2018-05-04T16:31:03.836Z,30.39
2018-05-04T16:33:31.325Z,30.74
2018-05-04T16:35:58.780Z,30.42
2018-05-04T16:38:26.285Z,30.60
2018-05-04T16:40:53.764Z,30.26
2018-05-04T16:43:21.313Z,30.58
2018-05-04T16:45:48.834Z,30.59
2018-05-04T16:48:21.980Z,30.71
2018-05-04T16:50:49.458Z,30.54
2018-05-04T16:53:16.947Z,30.90
2018-05-04T16:55:44.399Z,31.12
2018-05-04T16:58:11.892Z,31.35
2018-05-04T17:00:39.361Z,31.60
2018-05-04T17:03:06.917Z,31.65
2018-05-04T17:05:34.401Z,31.99
2018-05-04T17:08:01.928Z,31.96
2018-05-04T17:10:29.331Z,32.09
2018-05-04T17:12:56.817Z,32.51
2018-05-04T17:15:24.306Z,32.12
2018-05-04T17:17:51.806Z,32.68
2018-05-04T17:20:19.267Z,32.74
2018-05-04T17:22:46.779Z,32.66
2018-05-04T17:25:15.236Z,32.88
2018-05-04T17:27:42.727Z,33.09
2018-05-04T17:30:10.204Z,33.01
2018-05-04T17:32:37.649Z,33.13
2018-05-04T17:35:05.128Z,33.17
2018-05-04T17:37:32.634Z,33.34
2018-05-04T17:40:00.122Z,33.60
2018-05-04T17:42:27.621Z,33.63
2018-05-04T17:44:55.151Z,33.79
2018-05-04T17:47:22.682Z,33.79
2018-05-04T17:49:50.149Z,33.75
2018-05-04T17:52:17.635Z,34.04
2018-05-04T17:54:45.093Z,34.16
2018-05-04T17:57:12.540Z,34.08
2018-05-04T17:59:40.066Z,34.35
2018-05-04T18:02:07.520Z,34.45
2018-05-04T18:04:35.005Z,34.70
2018-05-04T18:07:02.547Z,34.86
2018-05-04T18:09:30.001Z,35.05
2018-05-04T18:11:57.585Z,35.47
2018-05-04T18:14:25.055Z,35.01
2018-05-04T18:16:52.506Z,35.02
2018-05-04T18:19:19.985Z,35.09
2018-05-04T18:21:47.472Z,35.23
2018-05-04T18:24:15.049Z,35.03
2018-05-04T18:26:42.512Z,35.17
2018-05-04T18:29:09.988Z,35.20
2018-05-04T18:31:37.519Z,35.41
2018-05-04T18:34:04.992Z,35.66
2018-05-04T18:36:32.464Z,35.84
2018-05-04T18:38:59.939Z,36.08
2018-05-04T18:41:27.450Z,36.29
2018-05-04T18:43:54.948Z,36.56
2018-05-04T18:46:22.433Z,36.70
2018-05-04T18:48:49.912Z,37.02
2018-05-04T18:51:17.483Z,37.27
2018-05-04T18:53:44.928Z,37.71
2018-05-04T18:56:12.459Z,38.05
2018-05-04T18:58:39.914Z,38.37
2018-05-04T19:01:07.476Z,38.81
2018-05-04T19:03:34.947Z,39.11
2018-05-04T19:06:02.432Z,39.58
2018-05-04T19:08:29.884Z,39.93
2018-05-04T19:10:57.359Z,40.28
2018-05-04T19:13:24.822Z,40.72
2018-05-04T19:15:52.308Z,41.00
2018-05-04T19:18:19.853Z,42.49
2018-05-04T19:20:47.309Z,43.17
2018-05-04T19:23:14.809Z,43.90
2018-05-04T19:25:42.304Z,45.66
2018-05-04T19:28:09.849Z,46.53
2018-05-04T19:30:37.365Z,47.21
2018-05-04T19:33:04.889Z,47.61
2018-05-04T19:35:32.385Z,48.09
2018-05-04T19:37:59.835Z,48.52
2018-05-04T19:40:27.363Z,48.89
2018-05-04T19:42:54.897Z,49.14
2018-05-04T19:45:22.355Z,49.57
2018-05-04T19:47:49.913Z,49.93
2018-05-04T19:50:17.409Z,50.34
2018-05-04T19:52:44.975Z,50.71
2018-05-04T19:55:12.531Z,50.95
2018-05-04T19:57:40.002Z,51.18
2018-05-04T20:00:07.489Z,51.40
2018-05-04T20:02:35.012Z,51.55
2018-05-04T20:05:02.496Z,51.80
2018-05-04T20:07:30.869Z,52.00
2018-05-04T20:09:58.506Z,52.27
2018-05-04T20:12:26.024Z,52.38
2018-05-04T20:14:53.513Z,52.59
2018-05-04T20:17:23.686Z,52.79
2018-05-04T20:19:52.713Z,53.04
2018-05-04T20:22:21.764Z,53.18
2018-05-04T20:24:50.965Z,53.51
2018-05-04T20:27:21.143Z,53.79
2018-05-04T20:29:50.524Z,53.69
2018-05-04T20:32:20.244Z,53.67
2018-05-04T20:34:49.310Z,53.84
2018-05-04T20:37:19.284Z,53.77
2018-05-04T20:39:49.253Z,53.90
2018-05-04T20:42:19.716Z,53.99
2018-05-04T20:44:50.194Z,54.00
2018-05-04T20:47:19.631Z,53.95
2018-05-04T20:49:50.316Z,54.07
2018-05-04T20:52:19.395Z,54.31
2018-05-04T20:54:49.112Z,54.53
2018-05-04T20:57:17.913Z,54.49
2018-05-04T20:59:46.813Z,54.47
2018-05-04T21:02:15.944Z,54.60
2018-05-04T21:04:45.314Z,54.89
2018-05-04T21:07:14.499Z,54.77
2018-05-04T21:09:44.137Z,55.07
2018-05-04T21:12:13.258Z,55.21
2018-05-04T21:14:42.398Z,55.52
2018-05-04T21:17:11.791Z,55.42
2018-05-04T21:19:40.895Z,55.72
2018-05-04T21:22:10.140Z,55.78
2018-05-04T21:24:39.745Z,55.78
2018-05-04T21:27:08.924Z,55.82
2018-05-04T21:29:38.258Z,55.47
2018-05-04T21:32:07.539Z,55.25
2018-05-04T21:34:36.289Z,55.45
2018-05-04T21:37:05.380Z,55.22
2018-05-04T21:39:34.811Z,55.36
2018-05-04T21:42:04.034Z,55.26
2018-05-04T21:44:33.006Z,55.49
2018-05-04T21:47:01.533Z,55.18
2018-05-04T21:49:30.923Z,55.42
2018-05-04T21:52:00.565Z,55.43
2018-05-04T21:54:29.052Z,55.73
2018-05-04T21:56:57.548Z,56.08
2018-05-04T21:59:25.109Z,56.26
2018-05-04T22:01:54.161Z,56.50
2018-05-04T22:04:22.811Z,56.63
2018-05-04T22:06:51.882Z,56.67
2018-05-04T22:09:20.634Z,56.95
2018-05-04T22:11:48.272Z,57.36
2018-05-04T22:14:17.625Z,56.90
2018-05-04T22:16:47.112Z,57.48
2018-05-04T22:19:16.388Z,57.57
2018-05-04T22:21:45.833Z,57.84
2018-05-04T22:24:15.019Z,57.83
2018-05-04T22:26:43.953Z,58.01
2018-05-04T22:29:13.188Z,57.90
2018-05-04T22:31:42.064Z,57.93
2018-05-04T22:34:11.041Z,57.79
2018-05-04T22:36:40.106Z,57.89
2018-05-04T22:39:09.026Z,57.86
2018-05-04T22:41:37.785Z,58.02
2018-05-04T22:44:07.031Z,58.10
2018-05-04T22:46:36.204Z,58.13
2018-05-04T22:49:05.317Z,58.00
2018-05-04T22:51:34.691Z,58.01
2018-05-04T22:54:03.557Z,58.03
2018-05-04T22:56:32.895Z,58.04
2018-05-04T22:59:02.230Z,58.16
2018-05-04T23:01:31.052Z,58.12
2018-05-04T23:04:00.195Z,58.29
2018-05-04T23:06:29.511Z,58.17
2018-05-04T23:08:58.525Z,58.32
2018-05-04T23:11:27.575Z,58.16
2018-05-04T23:13:56.820Z,58.40
2018-05-04T23:16:25.770Z,58.46
2018-05-04T23:18:55.480Z,58.50
2018-05-04T23:21:24.535Z,58.55
2018-05-04T23:23:53.057Z,58.60
2018-05-04T23:26:22.185Z,58.85
2018-05-04T23:28:51.225Z,59.17
2018-05-04T23:31:20.228Z,59.43
2018-05-04T23:33:49.595Z,59.64
2018-05-04T23:36:18.636Z,59.74
2018-05-04T23:38:47.713Z,59.75
2018-05-04T23:41:17.176Z,59.60
2018-05-04T23:43:46.399Z,59.79
2018-05-04T23:46:15.673Z,59.79
2018-05-04T23:48:44.586Z,59.88
2018-05-04T23:51:13.594Z,59.91
2018-05-04T23:53:42.740Z,60.00
2018-05-04T23:56:11.639Z,59.87
2018-05-04T23:58:41.090Z,60.02
